createdAt,value
2019-03-25T00:02:10.403Z,101188.19
2019-03-25T00:04:40.205Z,101183.25
2019-03-25T00:07:10.378Z,101183.16
2019-03-25T00:09:40.145Z,101188.05
2019-03-25T00:12:09.942Z,101198.58
2019-03-25T00:14:40.166Z,101197.06
2019-03-25T00:17:10.955Z,101192.41
2019-03-25T00:19:40.760Z,101187.37
2019-03-25T00:22:11.014Z,101189.00
2019-03-25T00:24:40.797Z,101181.84
2019-03-25T00:27:10.611Z,101180.02
2019-03-25T00:29:40.833Z,101173.88
2019-03-25T00:32:10.686Z,101182.25
2019-03-25T00:34:40.497Z,101178.16
2019-03-25T00:37:10.672Z,101180.06
2019-03-25T00:39:40.413Z,101172.97
2019-03-25T00:42:10.209Z,101170.48
2019-03-25T00:44:40.448Z,101167.39
2019-03-25T00:47:10.236Z,101166.63
2019-03-25T00:49:40.034Z,101166.20
2019-03-25T00:52:10.285Z,101158.74
2019-03-25T00:54:49.587Z,101159.64
2019-03-25T00:57:11.563Z,101162.54
2019-03-25T00:59:41.334Z,101166.15
2019-03-25T01:02:11.125Z,101172.84
2019-03-25T01:04:41.360Z,101172.25
2019-03-25T01:07:11.109Z,101165.11
2019-03-25T01:09:40.894Z,101170.14
2019-03-25T01:12:10.746Z,101165.53
2019-03-25T01:14:40.554Z,101163.21
2019-03-25T01:17:10.685Z,101161.21
2019-03-25T01:19:41.351Z,101165.34
2019-03-25T01:22:11.130Z,101162.83
2019-03-25T01:24:41.352Z,101169.26
2019-03-25T01:27:11.170Z,101173.19
2019-03-25T01:29:40.957Z,101169.67
2019-03-25T01:32:11.095Z,101172.13
2019-03-25T01:34:40.920Z,101168.13
2019-03-25T01:37:10.689Z,101174.51
2019-03-25T01:39:40.870Z,101173.48
2019-03-25T01:42:11.579Z,101169.91
2019-03-25T01:44:41.367Z,101172.08
2019-03-25T01:47:11.603Z,101172.59
2019-03-25T01:49:41.408Z,101176.28
2019-03-25T01:52:11.202Z,101170.77
2019-03-25T01:54:41.384Z,101164.20
2019-03-25T01:57:11.380Z,101159.08
2019-03-25T01:59:42.662Z,101162.67
2019-03-25T02:02:14.224Z,101158.17
2019-03-25T02:04:44.182Z,101149.70
2019-03-25T02:07:13.941Z,101154.03
2019-03-25T02:09:46.765Z,101143.67
2019-03-25T02:12:17.659Z,101142.87
2019-03-25T02:14:47.489Z,101135.86
2019-03-25T02:17:17.750Z,101138.94
2019-03-25T02:19:49.723Z,101136.20
2019-03-25T02:22:20.515Z,101135.52
2019-03-25T02:24:52.427Z,101138.91
2019-03-25T02:27:22.308Z,101141.48
2019-03-25T02:29:52.504Z,101144.18
2019-03-25T02:32:22.292Z,101141.66
2019-03-25T02:34:52.059Z,101130.89
2019-03-25T02:37:22.216Z,101135.81
2019-03-25T02:39:52.021Z,101132.05
2019-03-25T02:42:21.789Z,101135.22
2019-03-25T02:44:51.961Z,101134.56
2019-03-25T02:47:21.792Z,101128.45
2019-03-25T02:49:51.562Z,101133.56
2019-03-25T02:52:21.713Z,101129.50
2019-03-25T02:54:51.505Z,101130.88
2019-03-25T02:57:21.280Z,101130.59
2019-03-25T02:59:51.433Z,101128.11
2019-03-25T03:02:21.256Z,101133.42
2019-03-25T03:04:50.997Z,101129.77
2019-03-25T03:07:21.242Z,101129.20
2019-03-25T03:09:51.040Z,101133.25
2019-03-25T03:12:20.800Z,101130.72
2019-03-25T03:14:50.969Z,101134.06
2019-03-25T03:17:20.953Z,101125.13
2019-03-25T03:19:50.717Z,101126.70
2019-03-25T03:22:20.929Z,101126.75
2019-03-25T03:24:50.800Z,101124.23
2019-03-25T03:27:20.614Z,101117.72
2019-03-25T03:29:50.872Z,101125.28
2019-03-25T03:32:20.693Z,101129.84
2019-03-25T03:34:50.476Z,101129.70
2019-03-25T03:37:20.599Z,101124.67
2019-03-25T03:39:51.545Z,101121.56
2019-03-25T03:42:21.646Z,101111.92
2019-03-25T03:44:51.811Z,101119.08
2019-03-25T03:47:21.924Z,101109.80
2019-03-25T03:49:51.812Z,101107.38
2019-03-25T03:52:22.028Z,101106.45
2019-03-25T03:54:51.886Z,101104.83
2019-03-25T03:57:22.353Z,101097.17
2019-03-25T03:59:55.347Z,101089.33
2019-03-25T04:02:26.196Z,101090.69
2019-03-25T04:04:57.406Z,101088.75
2019-03-25T04:07:29.209Z,101091.08
2019-03-25T04:10:02.520Z,101100.28
2019-03-25T04:12:34.076Z,101099.55
2019-03-25T04:15:05.285Z,101098.73
2019-03-25T04:17:36.501Z,101094.29
2019-03-25T04:20:09.590Z,101099.14
2019-03-25T04:22:39.460Z,101101.72
2019-03-25T04:25:10.471Z,101097.69
2019-03-25T04:27:42.670Z,101101.55
2019-03-25T04:30:14.274Z,101098.01
2019-03-25T04:32:44.076Z,101101.39
2019-03-25T04:35:14.190Z,101088.00
2019-03-25T04:37:44.096Z,101086.59
2019-03-25T04:40:16.688Z,101088.66
2019-03-25T04:42:46.532Z,101086.53
2019-03-25T04:45:16.344Z,101085.67
2019-03-25T04:47:46.502Z,101083.39
2019-03-25T04:50:16.434Z,101077.91
2019-03-25T04:52:46.421Z,101077.80
2019-03-25T04:55:16.585Z,101075.23
2019-03-25T04:57:46.413Z,101082.02
2019-03-25T05:00:18.218Z,101084.55
2019-03-25T05:02:47.994Z,101088.59
2019-03-25T05:05:17.781Z,101083.48
2019-03-25T05:07:47.555Z,101076.47
2019-03-25T05:10:17.741Z,101082.56
2019-03-25T05:12:47.552Z,101073.95
2019-03-25T05:15:17.347Z,101078.11
2019-03-25T05:17:47.462Z,101077.89
2019-03-25T05:20:17.520Z,101073.20
2019-03-25T05:22:47.279Z,101076.98
2019-03-25T05:25:17.337Z,101058.94
2019-03-25T05:27:47.129Z,101056.70
2019-03-25T05:30:17.899Z,101065.31
2019-03-25T05:32:48.017Z,101068.41
2019-03-25T05:35:17.862Z,101069.72
2019-03-25T05:37:47.609Z,101066.92
2019-03-25T05:40:17.801Z,101061.04
2019-03-25T05:42:48.190Z,101061.67
2019-03-25T05:45:17.975Z,101063.39
2019-03-25T05:47:48.158Z,101056.94
2019-03-25T05:50:17.951Z,101051.38
2019-03-25T05:52:47.704Z,101053.22
2019-03-25T05:55:17.842Z,101054.86
2019-03-25T05:57:47.614Z,101065.44
2019-03-25T06:00:18.937Z,101063.73
2019-03-25T06:02:48.699Z,101057.84
2019-03-25T06:05:18.528Z,101047.63
2019-03-25T06:07:48.684Z,101066.59
2019-03-25T06:10:18.910Z,101072.96
2019-03-25T06:12:48.770Z,101075.15
2019-03-25T06:15:18.656Z,101067.92
2019-03-25T06:17:48.439Z,101069.09
2019-03-25T06:20:18.684Z,101063.16
2019-03-25T06:22:48.458Z,101057.23
2019-03-25T06:25:18.267Z,101059.59
2019-03-25T06:27:48.609Z,101055.34
2019-03-25T06:30:18.473Z,101065.20
2019-03-25T06:32:49.126Z,101060.94
2019-03-25T06:35:19.503Z,101059.73
2019-03-25T06:37:49.247Z,101056.25
2019-03-25T06:40:19.002Z,101065.14
2019-03-25T06:42:49.282Z,101059.33
2019-03-25T06:45:19.053Z,101055.09
2019-03-25T06:47:48.844Z,101055.92
2019-03-25T06:50:19.022Z,101049.40
2019-03-25T06:52:48.792Z,101050.94
2019-03-25T06:55:18.554Z,101044.09
2019-03-25T06:57:48.756Z,101044.45
2019-03-25T07:00:18.531Z,101047.67
2019-03-25T07:02:48.362Z,101044.57
2019-03-25T07:05:18.630Z,101043.27
2019-03-25T07:07:49.256Z,101044.08
2019-03-25T07:10:31.503Z,101055.45
2019-03-25T07:13:02.070Z,101043.05
2019-03-25T07:15:31.948Z,101051.19
2019-03-25T07:18:02.672Z,101044.87
2019-03-25T07:20:32.933Z,101037.59
2019-03-25T07:23:02.712Z,101026.27
2019-03-25T07:25:32.585Z,101038.81
2019-03-25T07:28:03.363Z,101037.70
2019-03-25T07:30:33.160Z,101054.05
2019-03-25T07:33:03.002Z,101045.53
2019-03-25T07:35:34.026Z,101049.26
2019-03-25T07:38:05.414Z,101049.69
2019-03-25T07:40:35.232Z,101053.50
2019-03-25T07:43:07.605Z,101067.41
2019-03-25T07:45:37.395Z,101063.29
2019-03-25T07:48:07.252Z,101058.91
2019-03-25T07:50:37.423Z,101060.66
2019-03-25T07:53:07.221Z,101063.13
2019-03-25T07:55:37.042Z,101064.73
2019-03-25T07:58:07.115Z,101067.63
2019-03-25T08:00:36.918Z,101064.71
2019-03-25T08:03:06.787Z,101054.24
2019-03-25T08:05:36.885Z,101064.55
2019-03-25T08:08:07.488Z,101067.27
2019-03-25T08:10:38.020Z,101062.75
2019-03-25T08:13:08.164Z,101063.81
2019-03-25T08:15:38.077Z,101070.48
2019-03-25T08:18:07.967Z,101069.33
2019-03-25T08:20:38.020Z,101069.19
2019-03-25T08:23:07.796Z,101078.92
2019-03-25T08:25:37.652Z,101078.99
2019-03-25T08:28:07.784Z,101074.63
2019-03-25T08:30:37.679Z,101074.02
2019-03-25T08:33:07.654Z,101084.15
2019-03-25T08:35:37.736Z,101080.95
2019-03-25T08:38:08.499Z,101085.14
2019-03-25T08:40:38.346Z,101085.17
2019-03-25T08:43:08.433Z,101083.80
2019-03-25T08:45:38.276Z,101088.30
2019-03-25T08:48:08.149Z,101097.09
2019-03-25T08:50:38.256Z,101101.76
2019-03-25T08:53:08.112Z,101103.20
2019-03-25T08:55:37.978Z,101100.28
2019-03-25T08:58:12.179Z,101098.91
2019-03-25T09:00:39.742Z,101099.20
2019-03-25T09:03:09.684Z,101092.52
2019-03-25T09:05:39.803Z,101095.22
2019-03-25T09:08:09.598Z,101105.05
2019-03-25T09:10:39.422Z,101095.36
2019-03-25T09:13:09.492Z,101104.12
2019-03-25T09:15:39.321Z,101108.82
2019-03-25T09:18:09.270Z,101101.41
2019-03-25T09:20:39.720Z,101096.95
2019-03-25T09:23:09.818Z,101105.44
2019-03-25T09:25:40.368Z,101091.33
2019-03-25T09:28:23.752Z,101086.26
2019-03-25T09:31:22.333Z,101094.57
2019-03-25T09:33:53.219Z,101092.81
2019-03-25T09:36:26.812Z,101078.92
2019-03-25T09:38:57.726Z,101083.44
2019-03-25T09:41:28.326Z,101083.90
2019-03-25T09:43:58.193Z,101083.56
2019-03-25T09:46:28.319Z,101087.91
2019-03-25T09:48:58.317Z,101082.76
2019-03-25T09:51:28.200Z,101083.94
2019-03-25T09:53:59.379Z,101092.38
2019-03-25T09:56:29.188Z,101082.07
2019-03-25T09:58:59.075Z,101091.59
2019-03-25T10:01:29.141Z,101084.95
2019-03-25T10:03:58.893Z,101080.72
2019-03-25T10:06:30.206Z,101085.64
2019-03-25T10:09:01.419Z,101075.39
2019-03-25T10:11:31.189Z,101070.98
2019-03-25T10:14:01.095Z,101072.34
2019-03-25T10:16:31.245Z,101077.98
2019-03-25T10:19:01.239Z,101067.52
2019-03-25T10:21:31.038Z,101067.30
2019-03-25T10:24:01.266Z,101058.81
2019-03-25T10:26:32.885Z,101062.59
2019-03-25T10:29:05.487Z,101070.04
2019-03-25T10:31:35.567Z,101056.67
2019-03-25T10:34:07.151Z,101063.58
2019-03-25T10:36:36.963Z,101055.61
2019-03-25T10:39:10.669Z,101054.06
2019-03-25T10:41:41.371Z,101050.39
2019-03-25T10:44:11.147Z,101048.57
2019-03-25T10:46:41.238Z,101036.55
2019-03-25T10:49:11.061Z,101031.64
2019-03-25T10:51:40.859Z,101038.95
2019-03-25T10:54:10.950Z,101030.42
2019-03-25T10:56:48.836Z,101020.92
2019-03-25T10:59:12.629Z,101023.78
2019-03-25T11:01:42.746Z,101015.90
2019-03-25T11:04:12.859Z,101010.27
2019-03-25T11:06:44.663Z,101005.99
2019-03-25T11:09:14.762Z,100992.55
2019-03-25T11:11:44.847Z,100989.42
2019-03-25T11:16:46.004Z,100989.98
2019-03-25T11:19:16.101Z,100993.19
2019-03-25T11:21:46.078Z,100998.41
2019-03-25T11:24:17.145Z,101004.44
2019-03-25T11:26:46.957Z,101013.77
2019-03-25T11:29:16.756Z,101008.50
2019-03-25T11:31:46.987Z,101014.48
2019-03-25T11:34:16.784Z,101017.52
2019-03-25T11:36:46.574Z,101035.56
2019-03-25T11:39:16.829Z,101016.94
2019-03-25T11:41:46.608Z,101025.52
2019-03-25T11:44:17.259Z,101028.00
2019-03-25T11:46:47.360Z,101025.34
2019-03-25T11:49:17.207Z,101028.64
2019-03-25T11:51:46.981Z,101027.15
2019-03-25T11:54:17.145Z,101014.52
2019-03-25T11:56:46.923Z,101025.19
2019-03-25T11:59:18.840Z,101013.50
2019-03-25T12:01:48.695Z,101014.42
2019-03-25T12:04:18.464Z,101006.04
2019-03-25T12:06:48.257Z,101007.88
2019-03-25T12:09:18.380Z,101009.55
2019-03-25T12:11:48.146Z,101007.12
2019-03-25T12:14:17.963Z,101009.64
2019-03-25T12:16:47.781Z,100988.29
2019-03-25T12:19:17.817Z,100987.05
2019-03-25T12:21:47.923Z,100989.82
2019-03-25T12:24:17.760Z,100986.77
2019-03-25T12:26:47.535Z,100985.36
2019-03-25T12:29:17.784Z,100985.84
2019-03-25T12:31:47.638Z,100983.21
2019-03-25T12:34:32.405Z,100976.95
2019-03-25T12:37:02.822Z,100985.35
2019-03-25T12:39:32.622Z,100987.90
2019-03-25T12:42:05.283Z,100986.87
2019-03-25T12:44:35.579Z,101017.52
2019-03-25T12:47:06.362Z,101046.03
2019-03-25T12:49:36.211Z,101059.67
2019-03-25T12:52:07.225Z,101084.69
2019-03-25T12:54:37.056Z,101095.77
2019-03-25T12:57:06.923Z,101113.90
2019-03-25T12:59:41.506Z,101098.56
2019-03-25T13:02:08.592Z,101098.02
2019-03-25T13:04:38.375Z,101087.95
2019-03-25T13:07:08.493Z,101077.69
2019-03-25T13:09:38.285Z,101072.28
2019-03-25T13:12:08.085Z,101084.33
2019-03-25T13:14:38.235Z,101051.72
2019-03-25T13:17:08.037Z,101066.83
2019-03-25T13:19:37.872Z,101068.24
2019-03-25T13:22:08.138Z,101073.56
2019-03-25T13:24:37.949Z,101081.28
2019-03-25T13:27:07.891Z,101073.37
2019-03-25T13:29:38.121Z,101073.73
2019-03-25T13:32:07.906Z,101075.22
2019-03-25T13:34:37.703Z,101070.09
2019-03-25T13:37:07.868Z,101086.16
2019-03-25T13:39:37.633Z,101097.80
2019-03-25T13:42:07.504Z,101102.23
2019-03-25T13:44:37.661Z,101109.55
2019-03-25T13:47:07.622Z,101111.48
2019-03-25T13:49:38.330Z,101114.86
2019-03-25T13:52:09.602Z,101106.40
2019-03-25T13:54:39.637Z,101111.91
2019-03-25T13:57:10.806Z,101107.41
2019-03-25T13:59:41.535Z,101100.94
2019-03-25T14:02:11.909Z,101095.44
2019-03-25T14:04:44.784Z,101099.09
2019-03-25T14:07:15.825Z,101091.55
2019-03-25T14:09:46.202Z,101079.36
2019-03-25T14:12:16.234Z,101076.87
2019-03-25T14:14:46.675Z,101071.20
2019-03-25T14:17:17.165Z,101061.95
2019-03-25T14:19:47.604Z,101049.52
2019-03-25T14:22:18.589Z,101046.07
2019-03-25T14:24:52.292Z,101053.32
2019-03-25T14:27:23.190Z,101049.17
2019-03-25T14:29:53.511Z,101058.35
2019-03-25T14:32:24.596Z,101049.73
2019-03-25T14:34:56.290Z,101052.95
2019-03-25T14:37:28.153Z,101057.55
2019-03-25T14:39:58.547Z,101054.92
2019-03-25T14:42:28.696Z,101059.76
2019-03-25T14:45:00.387Z,101067.84
2019-03-25T14:47:34.475Z,101083.94
2019-03-25T14:50:09.357Z,101085.93
2019-03-25T14:52:42.214Z,101079.60
2019-03-25T14:55:14.071Z,101084.52
2019-03-25T14:57:44.499Z,101088.88
2019-03-25T15:00:24.728Z,101079.98
2019-03-25T15:02:47.418Z,101088.59
2019-03-25T15:05:17.951Z,101097.69
2019-03-25T15:07:48.717Z,101096.41
2019-03-25T15:10:20.053Z,101089.42
2019-03-25T15:12:51.849Z,101103.38
2019-03-25T15:15:24.740Z,101078.23
2019-03-25T15:17:56.362Z,101090.12
2019-03-25T15:20:26.999Z,101092.58
2019-03-25T15:22:59.378Z,101095.17
2019-03-25T15:25:31.996Z,101102.38
2019-03-25T15:28:03.600Z,101100.48
2019-03-25T15:30:37.023Z,101099.27
2019-03-25T15:33:07.962Z,101090.52
2019-03-25T15:35:38.231Z,101092.55
2019-03-25T15:38:08.663Z,101101.87
2019-03-25T15:40:39.409Z,101098.34
2019-03-25T15:43:10.356Z,101118.16
2019-03-25T15:45:40.570Z,101126.63
2019-03-25T15:48:10.782Z,101129.48
2019-03-25T15:50:41.057Z,101126.69
2019-03-25T15:53:11.427Z,101129.98
2019-03-25T15:55:42.944Z,101129.30
2019-03-25T15:58:13.179Z,101137.70
2019-03-25T16:00:47.999Z,101143.67
2019-03-25T16:03:15.638Z,101139.33
2019-03-25T16:05:46.319Z,101143.92
2019-03-25T16:08:17.004Z,101148.02
2019-03-25T16:10:47.218Z,101149.02
2019-03-25T16:13:17.670Z,101139.36
2019-03-25T16:15:48.598Z,101139.33
2019-03-25T16:18:38.865Z,101125.66
2019-03-25T16:21:10.159Z,101132.32
2019-03-25T16:23:41.553Z,101125.89
2019-03-25T16:26:11.965Z,101123.89
2019-03-25T16:28:44.897Z,101122.84
2019-03-25T16:31:15.598Z,101130.78
2019-03-25T16:33:46.051Z,101123.33
2019-03-25T16:36:16.692Z,101133.93
2019-03-25T16:38:47.023Z,101134.48
2019-03-25T16:41:17.302Z,101153.43
2019-03-25T16:43:47.969Z,101148.48
2019-03-25T16:46:18.266Z,101140.15
2019-03-25T16:48:50.901Z,101154.08
2019-03-25T16:51:21.637Z,101167.14
2019-03-25T16:53:52.014Z,101161.09
2019-03-25T16:56:22.666Z,101168.78
2019-03-25T16:58:53.089Z,101170.70
2019-03-25T17:01:23.326Z,101175.75
2019-03-25T17:03:53.726Z,101184.89
2019-03-25T17:06:24.222Z,101190.94
2019-03-25T17:08:55.847Z,101185.09
2019-03-25T17:11:26.183Z,101175.91
2019-03-25T17:13:56.509Z,101187.11
2019-03-25T17:16:27.058Z,101194.59
2019-03-25T17:18:58.604Z,101203.20
2019-03-25T17:21:30.414Z,101206.58
2019-03-25T17:24:04.269Z,101207.37
2019-03-25T17:26:42.238Z,101217.73
2019-03-25T17:29:10.003Z,101216.73
2019-03-25T17:31:40.822Z,101212.55
2019-03-25T17:34:11.800Z,101218.02
2019-03-25T17:36:42.486Z,101233.94
2019-03-25T17:39:12.801Z,101212.30
2019-03-25T17:41:43.260Z,101223.09
2019-03-25T17:44:14.253Z,101249.72
2019-03-25T17:46:44.805Z,101259.10
2019-03-25T17:49:15.386Z,101261.02
2019-03-25T17:51:48.172Z,101276.95
2019-03-25T17:54:18.748Z,101278.02
2019-03-25T17:56:49.567Z,101276.08
2019-03-25T17:59:21.861Z,101286.67
2019-03-25T18:01:53.307Z,101275.59
2019-03-25T18:04:23.679Z,101269.20
2019-03-25T18:06:54.003Z,101278.28
2019-03-25T18:09:24.235Z,101287.05
2019-03-25T18:11:55.083Z,101286.48
2019-03-25T18:14:25.653Z,101286.24
2019-03-25T18:16:55.873Z,101277.69
2019-03-25T18:19:26.466Z,101284.44
2019-03-25T18:21:56.733Z,101286.59
2019-03-25T18:24:28.398Z,101297.78
2019-03-25T18:26:58.692Z,101310.69
2019-03-25T18:29:28.935Z,101313.59
2019-03-25T18:31:59.459Z,101323.27
2019-03-25T18:34:29.759Z,101328.70
2019-03-25T18:37:00.012Z,101330.13
2019-03-25T18:39:30.576Z,101340.92
2019-03-25T18:42:00.973Z,101342.50
2019-03-25T18:44:31.282Z,101343.56
2019-03-25T18:47:03.829Z,101347.31
2019-03-25T18:49:34.160Z,101350.00
2019-03-25T18:52:05.471Z,101354.78
2019-03-25T18:54:35.953Z,101348.76
2019-03-25T18:57:06.604Z,101349.88
2019-03-25T18:59:37.301Z,101353.30
2019-03-25T19:02:08.817Z,101359.09
2019-03-25T19:04:39.561Z,101370.04
2019-03-25T19:07:10.369Z,101380.34
2019-03-25T19:09:41.216Z,101386.41
2019-03-25T19:12:12.391Z,101383.79
2019-03-25T19:14:43.240Z,101383.20
2019-03-25T19:17:13.497Z,101376.55
2019-03-25T19:19:44.257Z,101384.16
2019-03-25T19:22:14.726Z,101391.44
2019-03-25T19:24:45.513Z,101397.13
2019-03-25T19:27:17.593Z,101396.50
2019-03-25T19:29:48.023Z,101396.89
2019-03-25T19:32:18.297Z,101400.31
2019-03-25T19:34:49.653Z,101396.57
2019-03-25T19:37:23.081Z,101406.47
2019-03-25T19:39:57.325Z,101413.23
2019-03-25T19:42:36.052Z,101413.41
2019-03-25T19:45:07.126Z,101408.86
2019-03-25T19:47:39.169Z,101418.89
2019-03-25T19:50:10.351Z,101414.51
2019-03-25T19:52:41.397Z,101417.58
2019-03-25T19:55:11.878Z,101421.20
2019-03-25T19:57:42.167Z,101418.20
2019-03-25T20:00:13.307Z,101430.08
2019-03-25T20:02:44.261Z,101437.30
2019-03-25T20:05:15.631Z,101440.80
2019-03-25T20:07:46.403Z,101448.27
2019-03-25T20:10:29.611Z,101455.46
2019-03-25T20:13:00.906Z,101456.96
2019-03-25T20:15:44.928Z,101461.38
2019-03-25T20:18:05.756Z,101462.72
2019-03-25T20:20:36.738Z,101469.62
2019-03-25T20:23:07.616Z,101471.65
2019-03-25T20:25:38.640Z,101467.43
2019-03-25T20:28:10.603Z,101470.58
2019-03-25T20:30:41.539Z,101476.80
2019-03-25T20:33:12.259Z,101480.73
2019-03-25T20:35:43.182Z,101479.75
2019-03-25T20:38:14.192Z,101487.08
2019-03-25T20:40:44.952Z,101491.11
2019-03-25T20:43:15.289Z,101481.66
2019-03-25T20:45:45.960Z,101489.33
2019-03-25T20:48:16.433Z,101492.32
2019-03-25T20:50:46.754Z,101500.05
2019-03-25T20:53:18.713Z,101499.38
2019-03-25T20:55:49.567Z,101500.21
2019-03-25T20:58:24.369Z,101506.82
2019-03-25T21:00:56.368Z,101505.99
2019-03-25T21:03:26.635Z,101511.50
2019-03-25T21:05:57.014Z,101514.25
2019-03-25T21:08:27.376Z,101519.89
2019-03-25T21:10:57.986Z,101522.51
2019-03-25T21:13:28.375Z,101522.02
2019-03-25T21:15:58.807Z,101525.13
2019-03-25T21:18:29.417Z,101527.19
2019-03-25T21:20:59.890Z,101533.05
2019-03-25T21:23:30.351Z,101537.16
2019-03-25T21:26:04.873Z,101539.98
2019-03-25T21:28:35.275Z,101540.59
2019-03-25T21:31:07.150Z,101539.10
2019-03-25T21:33:37.835Z,101541.45
2019-03-25T21:36:08.206Z,101550.09
2019-03-25T21:38:38.393Z,101554.97
2019-03-25T21:41:09.308Z,101559.63
2019-03-25T21:43:39.557Z,101562.25
2019-03-25T21:46:09.634Z,101564.77
2019-03-25T21:48:40.166Z,101573.86
2019-03-25T21:51:10.413Z,101576.75
2019-03-25T21:53:40.370Z,101575.05
2019-03-25T21:56:10.643Z,101573.69
2019-03-25T21:58:40.511Z,101568.70
2019-03-25T22:01:10.403Z,101569.67
2019-03-25T22:06:11.820Z,101579.56
2019-03-25T22:08:42.075Z,101580.31
2019-03-25T22:11:13.581Z,101580.80
2019-03-25T22:13:44.805Z,101582.78
2019-03-25T22:16:17.496Z,101588.55
2019-03-25T22:18:54.463Z,101594.09
2019-03-25T22:21:25.348Z,101602.75
2019-03-25T22:23:55.676Z,101602.49
2019-03-25T22:26:26.425Z,101602.56
2019-03-25T22:28:56.603Z,101609.20
2019-03-25T22:31:27.016Z,101608.98
2019-03-25T22:33:57.318Z,101605.45
2019-03-25T22:36:27.228Z,101609.59
2019-03-25T22:38:57.030Z,101608.98
2019-03-25T22:41:27.218Z,101610.31
2019-03-25T22:43:57.061Z,101611.30
2019-03-25T22:46:26.972Z,101610.96
2019-03-25T22:48:57.175Z,101605.07
2019-03-25T22:51:27.028Z,101611.80
2019-03-25T22:53:56.868Z,101616.00
2019-03-25T22:56:27.126Z,101619.23
2019-03-25T22:58:56.930Z,101624.90
2019-03-25T23:01:26.922Z,101625.41
2019-03-25T23:03:57.078Z,101625.65
2019-03-25T23:06:26.893Z,101631.43
2019-03-25T23:08:56.721Z,101638.31
2019-03-25T23:11:27.145Z,101640.18
2019-03-25T23:13:56.969Z,101643.33
2019-03-25T23:16:26.839Z,101640.95
2019-03-25T23:18:58.969Z,101638.00
2019-03-25T23:21:28.780Z,101642.12
2019-03-25T23:23:58.612Z,101650.98
2019-03-25T23:26:28.781Z,101649.94
2019-03-25T23:28:58.598Z,101657.13
2019-03-25T23:31:28.429Z,101665.05
2019-03-25T23:33:58.726Z,101660.20
2019-03-25T23:36:28.532Z,101664.93
2019-03-25T23:38:58.327Z,101660.68
2019-03-25T23:41:28.479Z,101661.08
2019-03-25T23:43:58.283Z,101664.64
2019-03-25T23:46:28.152Z,101670.26
2019-03-25T23:48:58.422Z,101667.30
2019-03-25T23:51:28.233Z,101668.86
2019-03-25T23:54:12.228Z,101671.47
2019-03-25T23:56:42.916Z,101677.58
2019-03-25T23:59:13.034Z,101677.78
